createdAt,value
2024-04-14T00:00:00.434Z,65
2024-04-14T00:10:00.491Z,65
2024-04-14T00:20:00.843Z,65
2024-04-14T00:30:00.462Z,64
2024-04-14T00:40:00.421Z,64
2024-04-14T00:50:00.630Z,64
2024-04-14T01:00:00.457Z,64
2024-04-14T01:10:00.432Z,64
2024-04-14T01:20:00.409Z,64
2024-04-14T01:30:00.568Z,65
2024-04-14T01:40:00.505Z,65
2024-04-14T01:50:00.374Z,65
2024-04-14T02:00:00.605Z,65
2024-04-14T02:10:00.598Z,66
2024-04-14T02:20:00.549Z,66
2024-04-14T02:30:00.415Z,67
2024-04-14T02:40:00.452Z,67
2024-04-14T02:50:00.410Z,67
2024-04-14T03:00:00.380Z,66
2024-04-14T03:10:00.454Z,66
2024-04-14T03:20:00.407Z,66
2024-04-14T03:30:00.483Z,66
2024-04-14T03:40:00.434Z,66
2024-04-14T03:50:00.412Z,67
2024-04-14T04:00:00.372Z,67
2024-04-14T04:10:00.468Z,68
2024-04-14T04:20:00.505Z,68
2024-04-14T04:30:00.475Z,68
2024-04-14T04:40:00.551Z,67
2024-04-14T04:50:00.410Z,66
2024-04-14T05:00:00.428Z,64
2024-04-14T05:10:00.670Z,47
2024-04-14T05:20:00.460Z,41
2024-04-14T05:30:00.481Z,42
2024-04-14T05:40:00.427Z,38
2024-04-14T05:50:01.766Z,37
2024-04-14T06:00:00.467Z,32
2024-04-14T06:10:00.556Z,30
2024-04-14T06:20:00.451Z,29
2024-04-14T06:30:00.420Z,29
2024-04-14T06:40:00.406Z,30
2024-04-14T06:50:00.671Z,37
2024-04-14T07:00:00.428Z,37
2024-04-14T07:10:00.459Z,37
2024-04-14T07:20:00.447Z,36
2024-04-14T07:30:00.393Z,36
2024-04-14T07:40:00.448Z,37
2024-04-14T07:50:00.437Z,37
2024-04-14T08:00:00.385Z,37
2024-04-14T08:10:00.672Z,36
2024-04-14T08:20:00.374Z,37
2024-04-14T08:30:00.405Z,36
2024-04-14T08:40:00.974Z,37
2024-04-14T08:50:00.451Z,37
2024-04-14T09:00:00.692Z,37
2024-04-14T09:10:00.426Z,37
2024-04-14T09:20:00.379Z,37
2024-04-14T09:30:00.408Z,37
2024-04-14T09:40:00.469Z,37
2024-04-14T09:50:00.426Z,36
2024-04-14T10:00:00.606Z,36
2024-04-14T10:10:00.603Z,34
2024-04-14T10:20:00.435Z,32
2024-04-14T10:30:00.388Z,32
2024-04-14T10:40:00.424Z,29
2024-04-14T10:50:00.371Z,29
2024-04-14T11:00:00.408Z,30
2024-04-14T11:10:00.568Z,29
2024-04-14T11:20:00.395Z,29
2024-04-14T11:30:00.441Z,29
2024-04-14T11:40:00.518Z,28
2024-04-14T11:50:00.385Z,28
2024-04-14T12:00:00.567Z,28
2024-04-14T12:10:00.513Z,28
2024-04-14T12:20:00.427Z,27
2024-04-14T12:30:00.434Z,28
2024-04-14T12:40:00.524Z,28
2024-04-14T12:50:00.388Z,29
2024-04-14T13:00:00.364Z,30
2024-04-14T13:10:00.445Z,30
2024-04-14T13:20:00.387Z,30
2024-04-14T13:30:00.435Z,31
2024-04-14T13:40:00.461Z,30
2024-04-14T13:50:00.414Z,31
2024-04-14T14:00:00.522Z,31
2024-04-14T14:10:00.531Z,31
2024-04-14T14:20:00.373Z,31
2024-04-14T14:30:00.410Z,31
2024-04-14T14:40:00.511Z,29
2024-04-14T14:50:00.403Z,31
2024-04-14T15:00:00.442Z,31
2024-04-14T15:10:00.412Z,31
2024-04-14T15:20:00.409Z,31
2024-04-14T15:30:00.402Z,31
2024-04-14T15:40:00.519Z,31
2024-04-14T15:50:00.585Z,32
2024-04-14T16:00:00.357Z,33
2024-04-14T16:10:00.728Z,33
2024-04-14T16:20:00.456Z,35
2024-04-14T16:30:00.561Z,35
2024-04-14T16:40:00.495Z,37
2024-04-14T16:50:00.747Z,40
2024-04-14T17:00:00.448Z,41
2024-04-14T17:10:00.584Z,42
2024-04-14T17:20:00.415Z,43
2024-04-14T17:30:00.539Z,44
2024-04-14T17:40:03.451Z,44
2024-04-14T17:50:00.375Z,47
2024-04-14T18:00:00.378Z,47
2024-04-14T18:10:00.473Z,46
2024-04-14T18:20:00.467Z,46
2024-04-14T18:30:00.435Z,47
2024-04-14T18:40:00.398Z,47
2024-04-14T18:50:00.566Z,45
2024-04-14T19:00:00.719Z,47
2024-04-14T19:10:00.427Z,46
2024-04-14T19:20:00.383Z,46
2024-04-14T19:30:00.418Z,49
2024-04-14T19:40:00.443Z,48
2024-04-14T19:50:00.405Z,47
2024-04-14T20:00:00.440Z,48
2024-04-14T20:10:00.451Z,49
2024-04-14T20:20:00.461Z,47
2024-04-14T20:30:00.593Z,49
2024-04-14T20:40:00.599Z,50
2024-04-14T20:50:00.410Z,48
2024-04-14T21:00:00.354Z,51
2024-04-14T21:10:00.384Z,51
2024-04-14T21:20:00.381Z,51
2024-04-14T21:30:00.561Z,51
2024-04-14T21:40:00.422Z,51
2024-04-14T21:50:00.378Z,50
2024-04-14T22:00:00.853Z,51
2024-04-14T22:10:00.483Z,53
2024-04-14T22:20:00.462Z,52
2024-04-14T22:30:00.393Z,55
2024-04-14T22:40:00.522Z,54
2024-04-14T22:50:00.373Z,55
2024-04-14T23:00:00.366Z,54
2024-04-14T23:10:00.493Z,56
2024-04-14T23:20:00.378Z,54
2024-04-14T23:30:00.632Z,55
2024-04-14T23:40:00.432Z,56
2024-04-14T23:50:00.378Z,55
